sensor_id;sensor_type;location;lat;lon;timestamp;pressure;altitude;pressure_sealevel;temperature;humidity
79411;BME280;69635;50.964;6.948;2023-12-22T00:01:54;99745.53;;;4.68;93.66
79411;BME280;69635;50.964;6.948;2023-12-22T00:04:19;99735.84;;;4.70;93.68
79411;BME280;69635;50.964;6.948;2023-12-22T00:06:45;99744.59;;;4.70;93.84
79411;BME280;69635;50.964;6.948;2023-12-22T00:09:13;99718.25;;;4.72;94.76
79411;BME280;69635;50.964;6.948;2023-12-22T00:11:38;99711.13;;;4.75;94.54
79411;BME280;69635;50.964;6.948;2023-12-22T00:14:04;99717.97;;;4.79;94.14
79411;BME280;69635;50.964;6.948;2023-12-22T00:16:29;99721.38;;;4.81;94.22
79411;BME280;69635;50.964;6.948;2023-12-22T00:18:54;99727.50;;;4.82;94.10
79411;BME280;69635;50.964;6.948;2023-12-22T00:21:21;99706.97;;;4.91;94.00
79411;BME280;69635;50.964;6.948;2023-12-22T00:23:46;99689.63;;;5.09;93.86
79411;BME280;69635;50.964;6.948;2023-12-22T00:26:12;99683.31;;;5.13;92.89
79411;BME280;69635;50.964;6.948;2023-12-22T00:28:37;99684.44;;;5.27;92.69
79411;BME280;69635;50.964;6.948;2023-12-22T00:31:03;99662.81;;;5.42;92.56
79411;BME280;69635;50.964;6.948;2023-12-22T00:33:28;99676.13;;;5.57;91.22
79411;BME280;69635;50.964;6.948;2023-12-22T00:35:53;99697.03;;;5.80;90.43
79411;BME280;69635;50.964;6.948;2023-12-22T00:38:19;99704.53;;;5.89;90.22
79411;BME280;69635;50.964;6.948;2023-12-22T00:40:44;99703.47;;;5.93;89.99
79411;BME280;69635;50.964;6.948;2023-12-22T00:43:09;99710.19;;;6.00;89.40
79411;BME280;69635;50.964;6.948;2023-12-22T00:45:35;99727.22;;;6.12;88.28
79411;BME280;69635;50.964;6.948;2023-12-22T00:48:00;99712.47;;;6.08;88.51
79411;BME280;69635;50.964;6.948;2023-12-22T00:50:26;99705.78;;;6.01;89.61
79411;BME280;69635;50.964;6.948;2023-12-22T00:52:51;99724.25;;;5.99;89.51
79411;BME280;69635;50.964;6.948;2023-12-22T00:55:16;99724.41;;;5.96;89.92
79411;BME280;69635;50.964;6.948;2023-12-22T00:57:42;99717.44;;;5.95;90.36
79411;BME280;69635;50.964;6.948;2023-12-22T01:00:08;99721.19;;;5.90;91.33
79411;BME280;69635;50.964;6.948;2023-12-22T01:02:38;99735.03;;;5.93;91.21
79411;BME280;69635;50.964;6.948;2023-12-22T01:05:04;99734.97;;;5.95;91.09
79411;BME280;69635;50.964;6.948;2023-12-22T01:07:29;99726.81;;;6.01;90.36
79411;BME280;69635;50.964;6.948;2023-12-22T01:09:55;99734.66;;;6.02;90.64
79411;BME280;69635;50.964;6.948;2023-12-22T01:12:21;99750.44;;;6.02;90.85
79411;BME280;69635;50.964;6.948;2023-12-22T01:14:46;99741.75;;;6.00;91.80
79411;BME280;69635;50.964;6.948;2023-12-22T01:17:14;99742.72;;;5.98;91.75
79411;BME280;69635;50.964;6.948;2023-12-22T01:19:39;99757.53;;;6.00;91.42
79411;BME280;69635;50.964;6.948;2023-12-22T01:22:05;99761.88;;;6.01;91.61
79411;BME280;69635;50.964;6.948;2023-12-22T01:24:30;99751.41;;;6.00;91.98
79411;BME280;69635;50.964;6.948;2023-12-22T01:26:55;99758.16;;;6.05;91.88
79411;BME280;69635;50.964;6.948;2023-12-22T01:29:21;99743.47;;;6.01;92.02
79411;BME280;69635;50.964;6.948;2023-12-22T01:31:46;99735.63;;;6.00;92.20
79411;BME280;69635;50.964;6.948;2023-12-22T01:34:11;99756.75;;;5.98;93.13
79411;BME280;69635;50.964;6.948;2023-12-22T01:36:37;99755.75;;;6.01;92.74
79411;BME280;69635;50.964;6.948;2023-12-22T01:39:02;99744.31;;;6.02;93.07
79411;BME280;69635;50.964;6.948;2023-12-22T01:41:28;99722.56;;;5.98;93.11
79411;BME280;69635;50.964;6.948;2023-12-22T01:43:53;99761.09;;;5.99;93.48
79411;BME280;69635;50.964;6.948;2023-12-22T01:46:19;99745.94;;;6.04;92.50
79411;BME280;69635;50.964;6.948;2023-12-22T01:48:44;99744.22;;;6.03;92.64
79411;BME280;69635;50.964;6.948;2023-12-22T01:51:10;99751.16;;;6.06;92.44
79411;BME280;69635;50.964;6.948;2023-12-22T01:53:35;99748.31;;;6.10;91.67
79411;BME280;69635;50.964;6.948;2023-12-22T01:56:02;99755.28;;;6.11;91.75
79411;BME280;69635;50.964;6.948;2023-12-22T01:58:29;99755.41;;;6.08;91.73
79411;BME280;69635;50.964;6.948;2023-12-22T02:00:56;99754.00;;;6.01;91.99
79411;BME280;69635;50.964;6.948;2023-12-22T02:03:22;99763.09;;;5.93;93.04
79411;BME280;69635;50.964;6.948;2023-12-22T02:05:47;99750.81;;;5.93;92.32
79411;BME280;69635;50.964;6.948;2023-12-22T02:08:15;99766.47;;;5.96;92.34
79411;BME280;69635;50.964;6.948;2023-12-22T02:10:43;99766.53;;;5.95;92.50
79411;BME280;69635;50.964;6.948;2023-12-22T02:13:08;99752.88;;;5.87;92.29
79411;BME280;69635;50.964;6.948;2023-12-22T02:15:34;99750.13;;;5.90;91.70
79411;BME280;69635;50.964;6.948;2023-12-22T02:18:10;99758.38;;;5.81;93.02
79411;BME280;69635;50.964;6.948;2023-12-22T02:20:38;99754.34;;;5.72;92.99
79411;BME280;69635;50.964;6.948;2023-12-22T02:23:03;99763.88;;;5.75;92.59
79411;BME280;69635;50.964;6.948;2023-12-22T02:25:29;99765.84;;;5.70;93.39
79411;BME280;69635;50.964;6.948;2023-12-22T02:28:00;99758.94;;;5.67;93.79
79411;BME280;69635;50.964;6.948;2023-12-22T02:33:22;99765.56;;;5.77;93.82
79411;BME280;69635;50.964;6.948;2023-12-22T02:35:50;99781.19;;;5.80;93.80
79411;BME280;69635;50.964;6.948;2023-12-22T02:38:17;99752.88;;;5.87;92.79
79411;BME280;69635;50.964;6.948;2023-12-22T02:40:44;99749.34;;;6.06;91.10
79411;BME280;69635;50.964;6.948;2023-12-22T02:43:10;99770.94;;;6.14;90.71
79411;BME280;69635;50.964;6.948;2023-12-22T02:45:36;99770.22;;;6.11;91.64
79411;BME280;69635;50.964;6.948;2023-12-22T02:48:01;99754.97;;;5.99;92.36
79411;BME280;69635;50.964;6.948;2023-12-22T02:50:27;99758.63;;;5.95;90.23
79411;BME280;69635;50.964;6.948;2023-12-22T02:52:52;99761.34;;;5.93;90.70
79411;BME280;69635;50.964;6.948;2023-12-22T02:55:18;99761.34;;;5.93;90.95
79411;BME280;69635;50.964;6.948;2023-12-22T02:57:43;99752.75;;;5.90;91.36
79411;BME280;69635;50.964;6.948;2023-12-22T03:00:09;99735.31;;;5.87;91.18
79411;BME280;69635;50.964;6.948;2023-12-22T03:02:34;99745.16;;;5.82;92.06
79411;BME280;69635;50.964;6.948;2023-12-22T03:05:00;99764.66;;;5.77;93.03
79411;BME280;69635;50.964;6.948;2023-12-22T03:07:25;99765.41;;;5.80;92.49
79411;BME280;69635;50.964;6.948;2023-12-22T03:09:50;99752.44;;;5.76;93.19
79411;BME280;69635;50.964;6.948;2023-12-22T03:12:16;99754.47;;;5.69;92.71
79411;BME280;69635;50.964;6.948;2023-12-22T03:14:41;99743.16;;;5.67;93.05
79411;BME280;69635;50.964;6.948;2023-12-22T03:17:06;99752.88;;;5.65;93.58
79411;BME280;69635;50.964;6.948;2023-12-22T03:19:33;99739.88;;;5.62;93.75
79411;BME280;69635;50.964;6.948;2023-12-22T03:21:59;99734.16;;;5.53;93.85
79411;BME280;69635;50.964;6.948;2023-12-22T03:24:27;99740.41;;;5.50;94.08
79411;BME280;69635;50.964;6.948;2023-12-22T03:26:54;99747.63;;;5.45;95.03
79411;BME280;69635;50.964;6.948;2023-12-22T03:29:20;99733.69;;;5.43;94.76
79411;BME280;69635;50.964;6.948;2023-12-22T03:31:46;99730.13;;;5.44;95.48
79411;BME280;69635;50.964;6.948;2023-12-22T03:34:12;99739.94;;;5.41;95.44
79411;BME280;69635;50.964;6.948;2023-12-22T03:36:37;99745.91;;;5.44;96.13
79411;BME280;69635;50.964;6.948;2023-12-22T03:39:03;99745.81;;;5.46;95.95
79411;BME280;69635;50.964;6.948;2023-12-22T03:41:29;99757.75;;;5.54;96.22
79411;BME280;69635;50.964;6.948;2023-12-22T03:43:55;99761.03;;;5.81;95.37
79411;BME280;69635;50.964;6.948;2023-12-22T03:46:20;99756.81;;;5.97;94.06
79411;BME280;69635;50.964;6.948;2023-12-22T03:48:46;99758.13;;;6.07;93.18
79411;BME280;69635;50.964;6.948;2023-12-22T03:51:12;99765.53;;;6.17;92.59
79411;BME280;69635;50.964;6.948;2023-12-22T03:53:38;99756.91;;;6.33;91.76
79411;BME280;69635;50.964;6.948;2023-12-22T03:56:04;99761.91;;;6.58;89.88
79411;BME280;69635;50.964;6.948;2023-12-22T03:58:29;99764.31;;;6.81;88.27
79411;BME280;69635;50.964;6.948;2023-12-22T04:00:56;99753.22;;;6.93;87.39
79411;BME280;69635;50.964;6.948;2023-12-22T04:03:21;99741.25;;;7.04;85.70
79411;BME280;69635;50.964;6.948;2023-12-22T04:05:46;99743.78;;;7.06;84.88
79411;BME280;69635;50.964;6.948;2023-12-22T04:08:12;99744.91;;;7.19;83.35
79411;BME280;69635;50.964;6.948;2023-12-22T04:10:37;99751.03;;;7.19;82.25
79411;BME280;69635;50.964;6.948;2023-12-22T04:13:03;99748.53;;;7.35;80.61
79411;BME280;69635;50.964;6.948;2023-12-22T04:15:28;99754.09;;;7.29;80.62
79411;BME280;69635;50.964;6.948;2023-12-22T04:17:53;99739.13;;;7.29;80.41
79411;BME280;69635;50.964;6.948;2023-12-22T04:20:19;99756.03;;;7.25;80.16
79411;BME280;69635;50.964;6.948;2023-12-22T04:22:44;99759.03;;;7.18;81.11
79411;BME280;69635;50.964;6.948;2023-12-22T04:25:09;99746.44;;;7.06;82.59
79411;BME280;69635;50.964;6.948;2023-12-22T04:27:35;99744.50;;;7.09;81.45
79411;BME280;69635;50.964;6.948;2023-12-22T04:30:00;99749.84;;;7.08;82.23
79411;BME280;69635;50.964;6.948;2023-12-22T04:32:26;99738.53;;;7.06;82.72
79411;BME280;69635;50.964;6.948;2023-12-22T04:34:51;99731.78;;;7.00;83.23
79411;BME280;69635;50.964;6.948;2023-12-22T04:37:17;99733.00;;;6.93;84.47
79411;BME280;69635;50.964;6.948;2023-12-22T04:39:42;99732.75;;;6.98;84.90
79411;BME280;69635;50.964;6.948;2023-12-22T04:42:08;99708.25;;;6.96;84.81
79411;BME280;69635;50.964;6.948;2023-12-22T04:44:33;99729.44;;;6.94;85.65
79411;BME280;69635;50.964;6.948;2023-12-22T04:46:58;99730.63;;;7.06;85.12
79411;BME280;69635;50.964;6.948;2023-12-22T04:49:24;99746.44;;;7.06;84.90
79411;BME280;69635;50.964;6.948;2023-12-22T04:51:49;99749.72;;;7.11;85.14
79411;BME280;69635;50.964;6.948;2023-12-22T04:54:14;99759.88;;;7.18;84.54
79411;BME280;69635;50.964;6.948;2023-12-22T04:56:40;99767.88;;;7.17;84.26
79411;BME280;69635;50.964;6.948;2023-12-22T04:59:05;99748.41;;;7.19;84.46
79411;BME280;69635;50.964;6.948;2023-12-22T05:01:31;99765.06;;;7.20;84.47
79411;BME280;69635;50.964;6.948;2023-12-22T05:03:56;99783.88;;;7.12;85.29
79411;BME280;69635;50.964;6.948;2023-12-22T05:06:21;99783.81;;;7.14;84.93
79411;BME280;69635;50.964;6.948;2023-12-22T05:08:47;99779.16;;;7.19;85.51
79411;BME280;69635;50.964;6.948;2023-12-22T05:11:12;99780.72;;;7.23;85.46
79411;BME280;69635;50.964;6.948;2023-12-22T05:13:38;99781.38;;;7.28;84.45
79411;BME280;69635;50.964;6.948;2023-12-22T05:16:03;99778.44;;;7.34;85.19
79411;BME280;69635;50.964;6.948;2023-12-22T05:18:29;99779.63;;;7.45;84.86
79411;BME280;69635;50.964;6.948;2023-12-22T05:20:55;99778.47;;;7.50;85.15
79411;BME280;69635;50.964;6.948;2023-12-22T05:23:20;99772.91;;;7.56;84.41
79411;BME280;69635;50.964;6.948;2023-12-22T05:25:46;99775.28;;;7.61;83.49
79411;BME280;69635;50.964;6.948;2023-12-22T05:28:11;99776.78;;;7.66;84.29
79411;BME280;69635;50.964;6.948;2023-12-22T05:30:36;99782.69;;;7.71;83.65
79411;BME280;69635;50.964;6.948;2023-12-22T05:33:02;99788.28;;;7.82;83.38
79411;BME280;69635;50.964;6.948;2023-12-22T05:35:27;99803.88;;;7.87;83.13
79411;BME280;69635;50.964;6.948;2023-12-22T05:37:53;99803.56;;;7.93;82.49
79411;BME280;69635;50.964;6.948;2023-12-22T05:40:18;99805.91;;;7.99;81.72
79411;BME280;69635;50.964;6.948;2023-12-22T05:42:43;99803.03;;;8.03;81.81
79411;BME280;69635;50.964;6.948;2023-12-22T05:45:09;99799.38;;;8.06;81.14
79411;BME280;69635;50.964;6.948;2023-12-22T05:47:36;99801.53;;;8.15;81.07
79411;BME280;69635;50.964;6.948;2023-12-22T05:50:02;99800.81;;;8.11;81.56
79411;BME280;69635;50.964;6.948;2023-12-22T05:52:27;99805.69;;;8.20;80.34
79411;BME280;69635;50.964;6.948;2023-12-22T05:54:53;99797.50;;;8.25;80.36
79411;BME280;69635;50.964;6.948;2023-12-22T05:57:19;99796.59;;;8.26;79.41
79411;BME280;69635;50.964;6.948;2023-12-22T05:59:45;99801.88;;;8.26;79.35
79411;BME280;69635;50.964;6.948;2023-12-22T06:02:10;99798.84;;;8.33;79.11
79411;BME280;69635;50.964;6.948;2023-12-22T06:04:35;99808.44;;;8.34;79.20
79411;BME280;69635;50.964;6.948;2023-12-22T06:07:01;99793.38;;;8.36;77.95
79411;BME280;69635;50.964;6.948;2023-12-22T06:09:26;99794.09;;;8.40;78.55
79411;BME280;69635;50.964;6.948;2023-12-22T06:11:53;99802.84;;;8.40;77.57
79411;BME280;69635;50.964;6.948;2023-12-22T06:14:18;99818.94;;;8.36;78.18
79411;BME280;69635;50.964;6.948;2023-12-22T06:16:45;99816.16;;;8.39;77.93
79411;BME280;69635;50.964;6.948;2023-12-22T06:19:10;99815.91;;;8.43;77.54
79411;BME280;69635;50.964;6.948;2023-12-22T06:21:38;99825.44;;;8.45;77.80
79411;BME280;69635;50.964;6.948;2023-12-22T06:24:04;99823.78;;;8.45;77.39
79411;BME280;69635;50.964;6.948;2023-12-22T06:26:29;99829.22;;;8.42;77.42
79411;BME280;69635;50.964;6.948;2023-12-22T06:28:55;99822.13;;;8.42;78.17
79411;BME280;69635;50.964;6.948;2023-12-22T06:31:25;99823.78;;;8.45;76.92
79411;BME280;69635;50.964;6.948;2023-12-22T06:33:51;99830.41;;;8.51;76.80
79411;BME280;69635;50.964;6.948;2023-12-22T06:36:24;99829.56;;;8.51;76.89
79411;BME280;69635;50.964;6.948;2023-12-22T06:38:50;99831.28;;;8.52;78.05
79411;BME280;69635;50.964;6.948;2023-12-22T06:41:20;99835.00;;;8.48;78.11
79411;BME280;69635;50.964;6.948;2023-12-22T06:43:45;99835.25;;;8.44;78.49
79411;BME280;69635;50.964;6.948;2023-12-22T06:46:21;99833.47;;;8.44;79.39
79411;BME280;69635;50.964;6.948;2023-12-22T06:48:56;99849.84;;;8.50;79.15
79411;BME280;69635;50.964;6.948;2023-12-22T06:51:29;99849.00;;;8.50;79.98
79411;BME280;69635;50.964;6.948;2023-12-22T06:54:01;99835.16;;;8.45;80.28
79411;BME280;69635;50.964;6.948;2023-12-22T06:56:29;99831.59;;;8.46;78.27
79411;BME280;69635;50.964;6.948;2023-12-22T06:58:56;99839.00;;;8.40;77.69
79411;BME280;69635;50.964;6.948;2023-12-22T07:01:33;99840.13;;;8.34;75.98
79411;BME280;69635;50.964;6.948;2023-12-22T07:03:59;99869.97;;;8.36;74.84
79411;BME280;69635;50.964;6.948;2023-12-22T07:06:29;99835.56;;;8.38;75.46
79411;BME280;69635;50.964;6.948;2023-12-22T07:11:22;99842.34;;;8.26;76.86
79411;BME280;69635;50.964;6.948;2023-12-22T07:13:48;99838.97;;;8.23;77.25
79411;BME280;69635;50.964;6.948;2023-12-22T07:16:14;99841.09;;;8.16;78.50
79411;BME280;69635;50.964;6.948;2023-12-22T07:18:40;99847.25;;;8.15;79.51
79411;BME280;69635;50.964;6.948;2023-12-22T07:21:05;99849.31;;;8.10;80.80
79411;BME280;69635;50.964;6.948;2023-12-22T07:23:30;99848.03;;;8.00;81.25
79411;BME280;69635;50.964;6.948;2023-12-22T07:25:56;99827.38;;;7.91;83.96
79411;BME280;69635;50.964;6.948;2023-12-22T07:28:21;99814.81;;;7.79;83.38
79411;BME280;69635;50.964;6.948;2023-12-22T07:30:47;99847.56;;;7.75;81.11
79411;BME280;69635;50.964;6.948;2023-12-22T07:33:23;99862.09;;;7.65;83.00
79411;BME280;69635;50.964;6.948;2023-12-22T07:35:50;99855.59;;;7.55;84.45
79411;BME280;69635;50.964;6.948;2023-12-22T07:38:15;99842.91;;;7.45;85.17
79411;BME280;69635;50.964;6.948;2023-12-22T07:40:41;99832.41;;;7.43;85.32
79411;BME280;69635;50.964;6.948;2023-12-22T07:43:07;99818.53;;;7.40;86.06
79411;BME280;69635;50.964;6.948;2023-12-22T07:45:34;99838.84;;;7.38;87.71
79411;BME280;69635;50.964;6.948;2023-12-22T07:47:59;99853.31;;;7.30;88.25
79411;BME280;69635;50.964;6.948;2023-12-22T07:50:25;99842.00;;;7.28;88.35
79411;BME280;69635;50.964;6.948;2023-12-22T07:52:50;99833.38;;;7.24;89.37
79411;BME280;69635;50.964;6.948;2023-12-22T07:55:16;99850.59;;;7.31;89.60
79411;BME280;69635;50.964;6.948;2023-12-22T07:57:41;99857.75;;;7.29;90.47
79411;BME280;69635;50.964;6.948;2023-12-22T08:00:07;99860.03;;;7.37;91.20
79411;BME280;69635;50.964;6.948;2023-12-22T08:02:36;99868.50;;;7.43;91.94
79411;BME280;69635;50.964;6.948;2023-12-22T08:05:03;99888.38;;;7.50;91.41
79411;BME280;69635;50.964;6.948;2023-12-22T08:07:31;99866.63;;;7.63;91.41
79411;BME280;69635;50.964;6.948;2023-12-22T08:09:57;99866.41;;;7.68;91.74
79411;BME280;69635;50.964;6.948;2023-12-22T08:12:25;99849.66;;;7.69;92.20
79411;BME280;69635;50.964;6.948;2023-12-22T08:14:54;99859.13;;;7.73;91.43
79411;BME280;69635;50.964;6.948;2023-12-22T08:17:20;99823.03;;;7.73;92.03
79411;BME280;69635;50.964;6.948;2023-12-22T08:22:21;99852.44;;;7.83;90.00
79411;BME280;69635;50.964;6.948;2023-12-22T08:24:48;99772.91;;;7.90;89.42
79411;BME280;69635;50.964;6.948;2023-12-22T08:27:22;99832.84;;;8.05;88.22
79411;BME280;69635;50.964;6.948;2023-12-22T08:29:48;99830.84;;;8.27;86.12
79411;BME280;69635;50.964;6.948;2023-12-22T08:34:59;99830.53;;;8.33;88.81
79411;BME280;69635;50.964;6.948;2023-12-22T08:37:24;99848.31;;;8.30;89.05
79411;BME280;69635;50.964;6.948;2023-12-22T08:39:50;99842.03;;;8.32;88.54
79411;BME280;69635;50.964;6.948;2023-12-22T08:42:17;99830.59;;;8.32;88.95
79411;BME280;69635;50.964;6.948;2023-12-22T08:44:42;99827.91;;;8.33;88.73
79411;BME280;69635;50.964;6.948;2023-12-22T08:47:08;99835.03;;;8.31;89.59
79411;BME280;69635;50.964;6.948;2023-12-22T08:49:33;99827.56;;;8.39;88.53
79411;BME280;69635;50.964;6.948;2023-12-22T08:51:58;99816.94;;;8.41;88.16
79411;BME280;69635;50.964;6.948;2023-12-22T08:54:24;99809.44;;;8.48;87.48
79411;BME280;69635;50.964;6.948;2023-12-22T08:56:49;99846.47;;;8.64;86.67
79411;BME280;69635;50.964;6.948;2023-12-22T08:59:14;99835.50;;;8.71;86.66
79411;BME280;69635;50.964;6.948;2023-12-22T09:01:40;99815.06;;;8.75;86.42
79411;BME280;69635;50.964;6.948;2023-12-22T09:04:09;99820.00;;;8.81;85.65
79411;BME280;69635;50.964;6.948;2023-12-22T09:06:35;99823.88;;;8.91;85.94
79411;BME280;69635;50.964;6.948;2023-12-22T09:09:01;99820.28;;;8.92;85.34
79411;BME280;69635;50.964;6.948;2023-12-22T09:11:26;99816.56;;;8.96;85.57
79411;BME280;69635;50.964;6.948;2023-12-22T09:13:51;99808.53;;;8.97;84.10
79411;BME280;69635;50.964;6.948;2023-12-22T09:16:21;99794.03;;;9.04;84.29
79411;BME280;69635;50.964;6.948;2023-12-22T09:18:47;99811.69;;;9.04;85.31
79411;BME280;69635;50.964;6.948;2023-12-22T09:21:13;99816.13;;;9.03;84.60
79411;BME280;69635;50.964;6.948;2023-12-22T09:23:38;99802.06;;;9.03;84.87
79411;BME280;69635;50.964;6.948;2023-12-22T09:26:04;99808.28;;;9.02;85.01
79411;BME280;69635;50.964;6.948;2023-12-22T09:28:30;99810.00;;;9.03;84.81
79411;BME280;69635;50.964;6.948;2023-12-22T09:30:55;99804.28;;;9.10;85.50
79411;BME280;69635;50.964;6.948;2023-12-22T09:33:21;99799.66;;;9.14;84.52
79411;BME280;69635;50.964;6.948;2023-12-22T09:35:47;99798.47;;;9.19;84.11
79411;BME280;69635;50.964;6.948;2023-12-22T09:38:13;99793.00;;;9.22;83.49
79411;BME280;69635;50.964;6.948;2023-12-22T09:40:39;99800.69;;;9.27;83.65
79411;BME280;69635;50.964;6.948;2023-12-22T09:43:06;99793.34;;;9.32;84.72
79411;BME280;69635;50.964;6.948;2023-12-22T09:45:36;99798.72;;;9.30;84.16
79411;BME280;69635;50.964;6.948;2023-12-22T09:48:05;99784.47;;;9.33;83.18
79411;BME280;69635;50.964;6.948;2023-12-22T09:50:32;99780.06;;;9.33;83.40
79411;BME280;69635;50.964;6.948;2023-12-22T09:53:00;99771.75;;;9.39;83.72
79411;BME280;69635;50.964;6.948;2023-12-22T09:55:27;99777.81;;;9.41;83.88
79411;BME280;69635;50.964;6.948;2023-12-22T09:57:54;99766.28;;;9.42;84.21
79411;BME280;69635;50.964;6.948;2023-12-22T10:00:21;99763.41;;;9.47;83.68
79411;BME280;69635;50.964;6.948;2023-12-22T10:02:48;99757.16;;;9.48;82.71
79411;BME280;69635;50.964;6.948;2023-12-22T10:05:13;99768.25;;;9.54;83.56
79411;BME280;69635;50.964;6.948;2023-12-22T10:07:44;99753.22;;;9.54;83.41
79411;BME280;69635;50.964;6.948;2023-12-22T10:10:11;99765.16;;;9.61;82.96
79411;BME280;69635;50.964;6.948;2023-12-22T10:12:38;99753.44;;;9.65;83.01
79411;BME280;69635;50.964;6.948;2023-12-22T10:15:05;99758.81;;;9.64;83.82
79411;BME280;69635;50.964;6.948;2023-12-22T10:17:32;99755.50;;;9.60;83.65
79411;BME280;69635;50.964;6.948;2023-12-22T10:19:58;99773.09;;;9.61;82.89
79411;BME280;69635;50.964;6.948;2023-12-22T10:22:23;99794.53;;;9.57;84.53
79411;BME280;69635;50.964;6.948;2023-12-22T10:24:49;99749.13;;;9.49;84.24
79411;BME280;69635;50.964;6.948;2023-12-22T10:27:19;99765.88;;;9.50;84.22
79411;BME280;69635;50.964;6.948;2023-12-22T10:29:55;99771.50;;;9.44;86.10
79411;BME280;69635;50.964;6.948;2023-12-22T10:32:21;99767.84;;;9.31;87.77
79411;BME280;69635;50.964;6.948;2023-12-22T10:34:47;99744.31;;;9.26;88.17
79411;BME280;69635;50.964;6.948;2023-12-22T10:37:13;99734.94;;;9.21;89.40
79411;BME280;69635;50.964;6.948;2023-12-22T10:39:40;99747.13;;;9.23;88.85
79411;BME280;69635;50.964;6.948;2023-12-22T10:42:06;99746.94;;;9.26;89.31
79411;BME280;69635;50.964;6.948;2023-12-22T10:44:31;99742.31;;;9.30;88.00
79411;BME280;69635;50.964;6.948;2023-12-22T10:46:57;99745.56;;;9.35;88.44
79411;BME280;69635;50.964;6.948;2023-12-22T10:49:24;99728.69;;;9.37;89.16
79411;BME280;69635;50.964;6.948;2023-12-22T10:51:50;99730.72;;;9.32;90.17
79411;BME280;69635;50.964;6.948;2023-12-22T10:54:17;99746.94;;;9.26;91.27
79411;BME280;69635;50.964;6.948;2023-12-22T10:56:46;99741.00;;;9.07;92.73
79411;BME280;69635;50.964;6.948;2023-12-22T10:59:23;99750.88;;;9.04;93.59
79411;BME280;69635;50.964;6.948;2023-12-22T11:01:51;99753.50;;;9.04;94.16
79411;BME280;69635;50.964;6.948;2023-12-22T11:04:20;99739.97;;;9.10;93.74
79411;BME280;69635;50.964;6.948;2023-12-22T11:06:47;99714.47;;;9.09;92.65
79411;BME280;69635;50.964;6.948;2023-12-22T11:09:16;99729.81;;;9.18;92.55
79411;BME280;69635;50.964;6.948;2023-12-22T11:11:42;99715.47;;;9.22;92.01
79411;BME280;69635;50.964;6.948;2023-12-22T11:14:08;99714.63;;;9.21;91.93
79411;BME280;69635;50.964;6.948;2023-12-22T11:16:36;99729.09;;;9.30;91.39
79411;BME280;69635;50.964;6.948;2023-12-22T11:19:03;99732.59;;;9.46;90.23
79411;BME280;69635;50.964;6.948;2023-12-22T11:21:30;99717.66;;;9.45;89.79
79411;BME280;69635;50.964;6.948;2023-12-22T11:23:56;99734.63;;;9.56;89.37
79411;BME280;69635;50.964;6.948;2023-12-22T11:26:23;99723.34;;;9.52;89.80
79411;BME280;69635;50.964;6.948;2023-12-22T11:28:50;99722.41;;;9.53;89.55
79411;BME280;69635;50.964;6.948;2023-12-22T11:31:17;99715.03;;;9.58;89.30
79411;BME280;69635;50.964;6.948;2023-12-22T11:33:45;99728.53;;;9.69;89.72
79411;BME280;69635;50.964;6.948;2023-12-22T11:36:14;99720.28;;;9.74;88.73
79411;BME280;69635;50.964;6.948;2023-12-22T11:38:40;99725.25;;;9.80;88.74
79411;BME280;69635;50.964;6.948;2023-12-22T11:41:08;99699.28;;;9.71;88.66
79411;BME280;69635;50.964;6.948;2023-12-22T11:43:37;99711.00;;;9.67;89.17
79411;BME280;69635;50.964;6.948;2023-12-22T11:46:03;99683.59;;;9.68;89.50
79411;BME280;69635;50.964;6.948;2023-12-22T11:48:32;99711.13;;;9.79;89.68
79411;BME280;69635;50.964;6.948;2023-12-22T11:50:58;99724.66;;;9.89;89.07
79411;BME280;69635;50.964;6.948;2023-12-22T11:53:25;99722.03;;;9.89;89.55
79411;BME280;69635;50.964;6.948;2023-12-22T11:58:45;99722.53;;;9.95;88.11
79411;BME280;69635;50.964;6.948;2023-12-22T12:01:19;99691.97;;;9.90;88.05
79411;BME280;69635;50.964;6.948;2023-12-22T12:03:53;99707.47;;;9.96;88.74
79411;BME280;69635;50.964;6.948;2023-12-22T12:08:50;99709.03;;;10.14;87.09
79411;BME280;69635;50.964;6.948;2023-12-22T12:11:16;99711.22;;;10.21;87.99
79411;BME280;69635;50.964;6.948;2023-12-22T12:13:45;99699.31;;;10.28;86.76
79411;BME280;69635;50.964;6.948;2023-12-22T12:16:14;99662.34;;;10.27;86.43
79411;BME280;69635;50.964;6.948;2023-12-22T12:18:40;99692.22;;;10.43;85.56
79411;BME280;69635;50.964;6.948;2023-12-22T12:21:07;99671.31;;;10.24;85.35
79411;BME280;69635;50.964;6.948;2023-12-22T12:23:33;99684.56;;;10.38;85.82
79411;BME280;69635;50.964;6.948;2023-12-22T12:25:59;99695.06;;;10.40;85.89
79411;BME280;69635;50.964;6.948;2023-12-22T12:28:35;99657.22;;;10.24;86.35
79411;BME280;69635;50.964;6.948;2023-12-22T12:31:05;99673.97;;;10.38;85.58
79411;BME280;69635;50.964;6.948;2023-12-22T12:33:32;99654.84;;;10.33;84.94
79411;BME280;69635;50.964;6.948;2023-12-22T12:36:00;99670.44;;;10.38;85.35
79411;BME280;69635;50.964;6.948;2023-12-22T12:38:36;99676.97;;;10.46;84.66
79411;BME280;69635;50.964;6.948;2023-12-22T12:41:05;99651.53;;;10.44;84.77
79411;BME280;69635;50.964;6.948;2023-12-22T12:43:31;99678.66;;;10.61;85.02
79411;BME280;69635;50.964;6.948;2023-12-22T12:46:04;99663.97;;;10.56;84.28
79411;BME280;69635;50.964;6.948;2023-12-22T12:48:30;99692.09;;;10.72;83.56
79411;BME280;69635;50.964;6.948;2023-12-22T12:51:04;99670.13;;;10.70;83.62
79411;BME280;69635;50.964;6.948;2023-12-22T12:53:33;99644.75;;;10.66;83.32
79411;BME280;69635;50.964;6.948;2023-12-22T12:56:01;99653.19;;;10.72;82.49
79411;BME280;69635;50.964;6.948;2023-12-22T12:58:30;99667.53;;;10.82;82.07
79411;BME280;69635;50.964;6.948;2023-12-22T13:01:08;99668.34;;;10.97;81.64
79411;BME280;69635;50.964;6.948;2023-12-22T13:03:55;99659.81;;;10.92;81.37
79411;BME280;69635;50.964;6.948;2023-12-22T13:06:21;99649.66;;;10.86;81.86
79411;BME280;69635;50.964;6.948;2023-12-22T13:08:51;99663.84;;;10.85;81.88
79411;BME280;69635;50.964;6.948;2023-12-22T13:11:24;99684.25;;;10.97;82.35
79411;BME280;69635;50.964;6.948;2023-12-22T13:13:51;99669.22;;;10.97;83.10
79411;BME280;69635;50.964;6.948;2023-12-22T13:16:20;99656.22;;;10.93;82.89
79411;BME280;69635;50.964;6.948;2023-12-22T13:18:47;99635.13;;;10.91;82.29
79411;BME280;69635;50.964;6.948;2023-12-22T13:21:14;99658.03;;;10.92;81.57
79411;BME280;69635;50.964;6.948;2023-12-22T13:23:40;99660.38;;;10.97;81.47